sensor_id;sensor_type;location;lat;lon;timestamp;temperature;humidity
54124;DHT22;55741;53.252;5.788;2023-03-16T00:00:53;4.10;99.90
54124;DHT22;55741;53.252;5.788;2023-03-16T00:03:19;4.10;99.90
54124;DHT22;55741;53.252;5.788;2023-03-16T00:05:51;4.10;99.90
54124;DHT22;55741;53.252;5.788;2023-03-16T00:08:17;4.10;99.90
54124;DHT22;55741;53.252;5.788;2023-03-16T00:10:45;4.10;99.90
54124;DHT22;55741;53.252;5.788;2023-03-16T00:13:15;4.10;99.90
54124;DHT22;55741;53.252;5.788;2023-03-16T00:15:58;4.10;99.90
54124;DHT22;55741;53.252;5.788;2023-03-16T00:18:26;4.10;99.90
54124;DHT22;55741;53.252;5.788;2023-03-16T00:20:55;4.10;99.90
54124;DHT22;55741;53.252;5.788;2023-03-16T00:23:22;4.10;99.90
54124;DHT22;55741;53.252;5.788;2023-03-16T00:26:03;4.10;99.90
54124;DHT22;55741;53.252;5.788;2023-03-16T00:28:33;4.10;99.90
54124;DHT22;55741;53.252;5.788;2023-03-16T00:31:02;4.10;99.90
54124;DHT22;55741;53.252;5.788;2023-03-16T00:33:28;4.10;99.90
54124;DHT22;55741;53.252;5.788;2023-03-16T00:35:54;4.20;99.90
54124;DHT22;55741;53.252;5.788;2023-03-16T00:38:32;4.10;99.90
54124;DHT22;55741;53.252;5.788;2023-03-16T00:41:03;4.10;99.90
54124;DHT22;55741;53.252;5.788;2023-03-16T00:43:31;4.10;99.90
54124;DHT22;55741;53.252;5.788;2023-03-16T00:45:58;4.10;99.90
54124;DHT22;55741;53.252;5.788;2023-03-16T00:48:26;4.00;99.90
54124;DHT22;55741;53.252;5.788;2023-03-16T00:50:51;4.10;99.90
54124;DHT22;55741;53.252;5.788;2023-03-16T00:53:19;4.00;99.90
54124;DHT22;55741;53.252;5.788;2023-03-16T00:55:46;4.10;99.90
54124;DHT22;55741;53.252;5.788;2023-03-16T00:58:14;4.00;99.90
54124;DHT22;55741;53.252;5.788;2023-03-16T01:00:40;4.00;99.90
54124;DHT22;55741;53.252;5.788;2023-03-16T01:03:07;4.00;99.90
54124;DHT22;55741;53.252;5.788;2023-03-16T01:05:38;4.00;99.90
54124;DHT22;55741;53.252;5.788;2023-03-16T01:08:04;4.00;99.90
54124;DHT22;55741;53.252;5.788;2023-03-16T01:10:33;3.90;99.90
54124;DHT22;55741;53.252;5.788;2023-03-16T01:12:59;3.90;99.90
54124;DHT22;55741;53.252;5.788;2023-03-16T01:15:30;4.00;99.90
54124;DHT22;55741;53.252;5.788;2023-03-16T01:17:56;3.90;99.90
54124;DHT22;55741;53.252;5.788;2023-03-16T01:20:22;3.90;99.90
54124;DHT22;55741;53.252;5.788;2023-03-16T01:22:48;3.80;99.90
54124;DHT22;55741;53.252;5.788;2023-03-16T01:25:14;3.90;99.90
54124;DHT22;55741;53.252;5.788;2023-03-16T01:27:40;3.90;99.90
54124;DHT22;55741;53.252;5.788;2023-03-16T01:30:11;3.80;99.90
54124;DHT22;55741;53.252;5.788;2023-03-16T01:32:38;3.80;99.90
54124;DHT22;55741;53.252;5.788;2023-03-16T01:35:12;3.80;99.90
54124;DHT22;55741;53.252;5.788;2023-03-16T01:37:38;3.80;99.90
54124;DHT22;55741;53.252;5.788;2023-03-16T01:40:07;3.80;99.90
54124;DHT22;55741;53.252;5.788;2023-03-16T01:42:57;3.80;99.90
54124;DHT22;55741;53.252;5.788;2023-03-16T01:45:53;3.80;99.90
54124;DHT22;55741;53.252;5.788;2023-03-16T01:48:25;3.90;99.90
54124;DHT22;55741;53.252;5.788;2023-03-16T01:50:54;3.90;99.90
54124;DHT22;55741;53.252;5.788;2023-03-16T01:53:22;3.90;99.90
54124;DHT22;55741;53.252;5.788;2023-03-16T01:55:49;4.00;99.90
54124;DHT22;55741;53.252;5.788;2023-03-16T01:58:21;3.90;99.90
54124;DHT22;55741;53.252;5.788;2023-03-16T02:00:47;4.00;99.90
54124;DHT22;55741;53.252;5.788;2023-03-16T02:03:15;4.00;99.90
54124;DHT22;55741;53.252;5.788;2023-03-16T02:08:44;4.10;99.90
54124;DHT22;55741;53.252;5.788;2023-03-16T02:11:12;4.10;99.90
54124;DHT22;55741;53.252;5.788;2023-03-16T02:13:44;4.10;99.90
54124;DHT22;55741;53.252;5.788;2023-03-16T02:16:11;4.10;99.90
54124;DHT22;55741;53.252;5.788;2023-03-16T02:18:58;4.20;99.90
54124;DHT22;55741;53.252;5.788;2023-03-16T02:21:34;4.20;99.90
54124;DHT22;55741;53.252;5.788;2023-03-16T02:24:04;4.20;99.90
54124;DHT22;55741;53.252;5.788;2023-03-16T02:27:01;4.20;99.90
54124;DHT22;55741;53.252;5.788;2023-03-16T02:32:17;4.30;99.90
54124;DHT22;55741;53.252;5.788;2023-03-16T02:34:43;4.30;99.90
54124;DHT22;55741;53.252;5.788;2023-03-16T02:37:10;4.30;99.90
54124;DHT22;55741;53.252;5.788;2023-03-16T02:39:36;4.30;99.90
54124;DHT22;55741;53.252;5.788;2023-03-16T02:42:03;4.40;99.90
54124;DHT22;55741;53.252;5.788;2023-03-16T02:44:36;4.40;99.90
54124;DHT22;55741;53.252;5.788;2023-03-16T02:47:10;4.40;99.90
54124;DHT22;55741;53.252;5.788;2023-03-16T02:49:41;4.40;99.90
54124;DHT22;55741;53.252;5.788;2023-03-16T02:52:09;4.40;99.90
54124;DHT22;55741;53.252;5.788;2023-03-16T02:54:39;4.40;99.90
54124;DHT22;55741;53.252;5.788;2023-03-16T02:57:05;4.40;99.90
54124;DHT22;55741;53.252;5.788;2023-03-16T02:59:31;4.40;99.90
54124;DHT22;55741;53.252;5.788;2023-03-16T03:02:05;4.40;99.90
54124;DHT22;55741;53.252;5.788;2023-03-16T03:04:31;4.50;99.90
54124;DHT22;55741;53.252;5.788;2023-03-16T03:06:58;4.50;99.90
54124;DHT22;55741;53.252;5.788;2023-03-16T03:09:49;4.50;99.90
54124;DHT22;55741;53.252;5.788;2023-03-16T03:12:18;4.50;99.90
54124;DHT22;55741;53.252;5.788;2023-03-16T03:14:44;4.50;99.90
54124;DHT22;55741;53.252;5.788;2023-03-16T03:17:10;4.50;99.90
54124;DHT22;55741;53.252;5.788;2023-03-16T03:19:38;4.40;99.90
54124;DHT22;55741;53.252;5.788;2023-03-16T03:22:04;4.50;99.90
54124;DHT22;55741;53.252;5.788;2023-03-16T03:24:32;4.50;99.90
54124;DHT22;55741;53.252;5.788;2023-03-16T03:26:58;4.50;99.90
54124;DHT22;55741;53.252;5.788;2023-03-16T03:29:32;4.50;99.90
54124;DHT22;55741;53.252;5.788;2023-03-16T03:32:02;4.50;99.90
54124;DHT22;55741;53.252;5.788;2023-03-16T03:34:30;4.50;99.90
54124;DHT22;55741;53.252;5.788;2023-03-16T03:36:57;4.50;99.90
54124;DHT22;55741;53.252;5.788;2023-03-16T03:39:24;4.50;99.90
54124;DHT22;55741;53.252;5.788;2023-03-16T03:41:50;4.50;99.90
54124;DHT22;55741;53.252;5.788;2023-03-16T03:44:21;4.50;99.90
54124;DHT22;55741;53.252;5.788;2023-03-16T03:46:47;4.50;99.90
54124;DHT22;55741;53.252;5.788;2023-03-16T03:49:13;4.50;99.90
54124;DHT22;55741;53.252;5.788;2023-03-16T03:51:39;4.50;99.90
54124;DHT22;55741;53.252;5.788;2023-03-16T03:54:06;4.50;99.90
54124;DHT22;55741;53.252;5.788;2023-03-16T03:56:32;4.50;99.90
54124;DHT22;55741;53.252;5.788;2023-03-16T03:58:58;4.60;99.90
54124;DHT22;55741;53.252;5.788;2023-03-16T04:01:24;4.60;99.90
54124;DHT22;55741;53.252;5.788;2023-03-16T04:03:50;4.60;99.90
54124;DHT22;55741;53.252;5.788;2023-03-16T04:06:16;4.60;99.90
54124;DHT22;55741;53.252;5.788;2023-03-16T04:08:42;4.60;99.90
54124;DHT22;55741;53.252;5.788;2023-03-16T04:11:12;4.60;99.90
54124;DHT22;55741;53.252;5.788;2023-03-16T04:13:38;4.60;99.90
54124;DHT22;55741;53.252;5.788;2023-03-16T04:16:04;4.60;99.90
54124;DHT22;55741;53.252;5.788;2023-03-16T04:18:30;4.50;99.90
54124;DHT22;55741;53.252;5.788;2023-03-16T04:21:07;4.50;99.90
54124;DHT22;55741;53.252;5.788;2023-03-16T04:23:37;4.60;99.90
54124;DHT22;55741;53.252;5.788;2023-03-16T04:26:03;4.60;99.90
54124;DHT22;55741;53.252;5.788;2023-03-16T04:28:31;4.50;99.90
54124;DHT22;55741;53.252;5.788;2023-03-16T04:31:08;4.50;99.90
54124;DHT22;55741;53.252;5.788;2023-03-16T04:33:37;4.50;99.90
54124;DHT22;55741;53.252;5.788;2023-03-16T04:36:06;4.50;99.90
54124;DHT22;55741;53.252;5.788;2023-03-16T04:38:32;4.50;99.90
54124;DHT22;55741;53.252;5.788;2023-03-16T04:41:00;4.50;99.90
54124;DHT22;55741;53.252;5.788;2023-03-16T04:43:30;4.40;99.90
54124;DHT22;55741;53.252;5.788;2023-03-16T04:45:59;4.40;99.90
54124;DHT22;55741;53.252;5.788;2023-03-16T04:48:30;4.40;99.90
54124;DHT22;55741;53.252;5.788;2023-03-16T04:50:57;4.40;99.90
54124;DHT22;55741;53.252;5.788;2023-03-16T04:53:26;4.40;99.90
54124;DHT22;55741;53.252;5.788;2023-03-16T04:55:52;4.40;99.90
54124;DHT22;55741;53.252;5.788;2023-03-16T04:58:18;4.40;99.90
54124;DHT22;55741;53.252;5.788;2023-03-16T05:00:44;4.40;99.90
54124;DHT22;55741;53.252;5.788;2023-03-16T05:03:11;4.40;99.90
54124;DHT22;55741;53.252;5.788;2023-03-16T05:05:37;4.40;99.90
54124;DHT22;55741;53.252;5.788;2023-03-16T05:08:07;4.40;99.90
54124;DHT22;55741;53.252;5.788;2023-03-16T05:10:33;4.30;99.90
54124;DHT22;55741;53.252;5.788;2023-03-16T05:13:00;4.40;99.90
54124;DHT22;55741;53.252;5.788;2023-03-16T05:15:26;4.30;99.90
54124;DHT22;55741;53.252;5.788;2023-03-16T05:17:53;4.30;99.90
54124;DHT22;55741;53.252;5.788;2023-03-16T05:20:20;4.30;99.90
54124;DHT22;55741;53.252;5.788;2023-03-16T05:22:54;4.30;99.90
54124;DHT22;55741;53.252;5.788;2023-03-16T05:25:20;4.30;99.90
54124;DHT22;55741;53.252;5.788;2023-03-16T05:27:51;4.30;99.90
54124;DHT22;55741;53.252;5.788;2023-03-16T05:30:18;4.30;99.90
54124;DHT22;55741;53.252;5.788;2023-03-16T05:32:51;4.30;99.90
54124;DHT22;55741;53.252;5.788;2023-03-16T05:35:17;4.30;99.90
54124;DHT22;55741;53.252;5.788;2023-03-16T05:37:51;4.30;99.90
54124;DHT22;55741;53.252;5.788;2023-03-16T05:40:28;4.30;99.90
54124;DHT22;55741;53.252;5.788;2023-03-16T05:42:55;4.30;99.90
54124;DHT22;55741;53.252;5.788;2023-03-16T05:45:22;4.30;99.90
54124;DHT22;55741;53.252;5.788;2023-03-16T05:47:48;4.30;99.90
54124;DHT22;55741;53.252;5.788;2023-03-16T05:50:15;4.30;99.90
54124;DHT22;55741;53.252;5.788;2023-03-16T05:52:45;4.30;99.90
54124;DHT22;55741;53.252;5.788;2023-03-16T05:55:12;4.20;99.90
54124;DHT22;55741;53.252;5.788;2023-03-16T05:57:39;4.30;99.90
54124;DHT22;55741;53.252;5.788;2023-03-16T06:00:07;4.30;99.90
54124;DHT22;55741;53.252;5.788;2023-03-16T06:02:41;4.30;99.90
54124;DHT22;55741;53.252;5.788;2023-03-16T06:05:07;4.30;99.90
54124;DHT22;55741;53.252;5.788;2023-03-16T06:07:34;4.30;99.90
54124;DHT22;55741;53.252;5.788;2023-03-16T06:10:00;4.30;99.90
54124;DHT22;55741;53.252;5.788;2023-03-16T06:12:28;4.30;99.90
54124;DHT22;55741;53.252;5.788;2023-03-16T06:14:54;4.30;99.90
54124;DHT22;55741;53.252;5.788;2023-03-16T06:17:20;4.40;99.90
54124;DHT22;55741;53.252;5.788;2023-03-16T06:19:46;4.30;99.90
54124;DHT22;55741;53.252;5.788;2023-03-16T06:22:11;4.30;99.90
54124;DHT22;55741;53.252;5.788;2023-03-16T06:24:37;4.30;99.90
54124;DHT22;55741;53.252;5.788;2023-03-16T06:27:03;4.40;99.90
54124;DHT22;55741;53.252;5.788;2023-03-16T06:29:29;4.40;99.90
54124;DHT22;55741;53.252;5.788;2023-03-16T06:31:55;4.40;99.90
54124;DHT22;55741;53.252;5.788;2023-03-16T06:34:21;4.40;99.90
54124;DHT22;55741;53.252;5.788;2023-03-16T06:36:47;4.40;99.90
54124;DHT22;55741;53.252;5.788;2023-03-16T06:39:15;4.40;99.90
54124;DHT22;55741;53.252;5.788;2023-03-16T06:41:41;4.40;99.90
54124;DHT22;55741;53.252;5.788;2023-03-16T06:44:08;4.40;99.90
54124;DHT22;55741;53.252;5.788;2023-03-16T06:46:34;4.50;99.90
54124;DHT22;55741;53.252;5.788;2023-03-16T06:49:00;4.50;99.90
54124;DHT22;55741;53.252;5.788;2023-03-16T06:51:26;4.50;99.90
54124;DHT22;55741;53.252;5.788;2023-03-16T06:53:52;4.50;99.90
54124;DHT22;55741;53.252;5.788;2023-03-16T06:56:18;4.50;99.90
54124;DHT22;55741;53.252;5.788;2023-03-16T06:58:44;4.40;99.90
54124;DHT22;55741;53.252;5.788;2023-03-16T07:01:10;4.50;99.90
54124;DHT22;55741;53.252;5.788;2023-03-16T07:03:43;4.40;99.90
54124;DHT22;55741;53.252;5.788;2023-03-16T07:06:09;4.50;99.90
54124;DHT22;55741;53.252;5.788;2023-03-16T07:08:35;4.50;99.90
54124;DHT22;55741;53.252;5.788;2023-03-16T07:11:01;4.40;99.90
54124;DHT22;55741;53.252;5.788;2023-03-16T07:13:27;4.50;99.90
54124;DHT22;55741;53.252;5.788;2023-03-16T07:15:52;4.50;99.90
54124;DHT22;55741;53.252;5.788;2023-03-16T07:18:19;4.50;99.90
54124;DHT22;55741;53.252;5.788;2023-03-16T07:20:45;4.50;99.90
54124;DHT22;55741;53.252;5.788;2023-03-16T07:23:12;4.50;99.90
54124;DHT22;55741;53.252;5.788;2023-03-16T07:25:38;4.50;99.90
54124;DHT22;55741;53.252;5.788;2023-03-16T07:28:04;4.50;99.90
54124;DHT22;55741;53.252;5.788;2023-03-16T07:30:42;4.50;99.90
54124;DHT22;55741;53.252;5.788;2023-03-16T07:33:09;4.50;99.90
54124;DHT22;55741;53.252;5.788;2023-03-16T07:35:35;4.50;99.90
54124;DHT22;55741;53.252;5.788;2023-03-16T07:38:01;4.50;99.90
54124;DHT22;55741;53.252;5.788;2023-03-16T07:40:29;4.60;99.90
54124;DHT22;55741;53.252;5.788;2023-03-16T07:42:55;4.50;99.90
54124;DHT22;55741;53.252;5.788;2023-03-16T07:45:21;4.50;99.90
54124;DHT22;55741;53.252;5.788;2023-03-16T07:47:47;4.60;99.90
54124;DHT22;55741;53.252;5.788;2023-03-16T07:50:14;4.50;99.90
54124;DHT22;55741;53.252;5.788;2023-03-16T07:52:45;4.60;99.90
54124;DHT22;55741;53.252;5.788;2023-03-16T07:55:12;4.60;99.90
54124;DHT22;55741;53.252;5.788;2023-03-16T07:57:38;4.60;99.90
54124;DHT22;55741;53.252;5.788;2023-03-16T08:00:07;4.60;99.90
54124;DHT22;55741;53.252;5.788;2023-03-16T08:02:34;4.70;99.90
54124;DHT22;55741;53.252;5.788;2023-03-16T08:05:00;4.70;99.90
54124;DHT22;55741;53.252;5.788;2023-03-16T08:07:26;4.70;99.90
54124;DHT22;55741;53.252;5.788;2023-03-16T08:09:52;4.70;99.90
54124;DHT22;55741;53.252;5.788;2023-03-16T08:12:17;4.80;99.90
54124;DHT22;55741;53.252;5.788;2023-03-16T08:14:43;4.80;99.90
54124;DHT22;55741;53.252;5.788;2023-03-16T08:17:11;4.80;99.90
54124;DHT22;55741;53.252;5.788;2023-03-16T08:19:41;4.80;99.90
54124;DHT22;55741;53.252;5.788;2023-03-16T08:22:08;4.80;99.90
54124;DHT22;55741;53.252;5.788;2023-03-16T08:24:37;4.80;99.90
54124;DHT22;55741;53.252;5.788;2023-03-16T08:27:03;4.90;99.90
54124;DHT22;55741;53.252;5.788;2023-03-16T08:29:30;4.90;99.90
54124;DHT22;55741;53.252;5.788;2023-03-16T08:31:59;4.80;99.90
54124;DHT22;55741;53.252;5.788;2023-03-16T08:34:26;4.90;99.90
54124;DHT22;55741;53.252;5.788;2023-03-16T08:36:52;4.80;99.90
54124;DHT22;55741;53.252;5.788;2023-03-16T08:39:19;4.90;99.90
54124;DHT22;55741;53.252;5.788;2023-03-16T08:41:47;4.90;99.90
54124;DHT22;55741;53.252;5.788;2023-03-16T08:44:13;5.00;99.90
54124;DHT22;55741;53.252;5.788;2023-03-16T08:46:39;5.00;99.90
54124;DHT22;55741;53.252;5.788;2023-03-16T08:49:05;5.00;99.90
54124;DHT22;55741;53.252;5.788;2023-03-16T08:51:43;5.00;99.90
54124;DHT22;55741;53.252;5.788;2023-03-16T08:54:09;5.00;99.90
54124;DHT22;55741;53.252;5.788;2023-03-16T08:56:37;5.00;99.90
54124;DHT22;55741;53.252;5.788;2023-03-16T08:59:03;5.00;99.90
54124;DHT22;55741;53.252;5.788;2023-03-16T09:01:29;5.10;99.90
54124;DHT22;55741;53.252;5.788;2023-03-16T09:03:55;5.00;99.90
54124;DHT22;55741;53.252;5.788;2023-03-16T09:06:21;5.10;99.90
54124;DHT22;55741;53.252;5.788;2023-03-16T09:08:47;5.10;99.90
54124;DHT22;55741;53.252;5.788;2023-03-16T09:11:18;5.20;99.90
54124;DHT22;55741;53.252;5.788;2023-03-16T09:13:45;5.20;99.90
54124;DHT22;55741;53.252;5.788;2023-03-16T09:16:14;5.20;99.90
54124;DHT22;55741;53.252;5.788;2023-03-16T09:18:41;5.20;99.90
54124;DHT22;55741;53.252;5.788;2023-03-16T09:21:09;5.30;99.90
54124;DHT22;55741;53.252;5.788;2023-03-16T09:23:38;5.30;99.90
54124;DHT22;55741;53.252;5.788;2023-03-16T09:26:05;5.40;99.90
54124;DHT22;55741;53.252;5.788;2023-03-16T09:28:34;5.40;99.90
54124;DHT22;55741;53.252;5.788;2023-03-16T09:31:01;5.40;99.90
54124;DHT22;55741;53.252;5.788;2023-03-16T09:33:30;5.50;99.90
54124;DHT22;55741;53.252;5.788;2023-03-16T09:35:57;5.50;99.90
54124;DHT22;55741;53.252;5.788;2023-03-16T09:38:24;5.50;99.90
54124;DHT22;55741;53.252;5.788;2023-03-16T09:41:05;5.50;99.90
54124;DHT22;55741;53.252;5.788;2023-03-16T09:46:28;5.50;99.90
54124;DHT22;55741;53.252;5.788;2023-03-16T09:48:56;5.50;99.90
54124;DHT22;55741;53.252;5.788;2023-03-16T09:51:31;5.50;99.90
54124;DHT22;55741;53.252;5.788;2023-03-16T09:54:01;5.50;99.90
54124;DHT22;55741;53.252;5.788;2023-03-16T09:56:34;5.50;99.90
54124;DHT22;55741;53.252;5.788;2023-03-16T09:59:13;5.50;99.90
54124;DHT22;55741;53.252;5.788;2023-03-16T10:12:59;5.50;99.90
54124;DHT22;55741;53.252;5.788;2023-03-16T10:15:29;5.60;99.90
54124;DHT22;55741;53.252;5.788;2023-03-16T10:18:02;5.60;99.90
54124;DHT22;55741;53.252;5.788;2023-03-16T10:20:33;5.60;99.90
54124;DHT22;55741;53.252;5.788;2023-03-16T10:23:07;5.60;99.90
54124;DHT22;55741;53.252;5.788;2023-03-16T10:25:46;5.70;99.90
54124;DHT22;55741;53.252;5.788;2023-03-16T10:28:21;5.70;99.90
54124;DHT22;55741;53.252;5.788;2023-03-16T10:30:49;5.70;99.90
54124;DHT22;55741;53.252;5.788;2023-03-16T10:33:22;5.80;99.90
54124;DHT22;55741;53.252;5.788;2023-03-16T10:43:55;6.00;99.90
54124;DHT22;55741;53.252;5.788;2023-03-16T10:46:27;6.10;99.90
54124;DHT22;55741;53.252;5.788;2023-03-16T10:48:59;6.20;99.90
54124;DHT22;55741;53.252;5.788;2023-03-16T10:51:28;6.20;99.90
54124;DHT22;55741;53.252;5.788;2023-03-16T10:54:15;6.30;99.90
54124;DHT22;55741;53.252;5.788;2023-03-16T10:56:44;6.30;99.90
54124;DHT22;55741;53.252;5.788;2023-03-16T10:59:31;6.40;99.90
54124;DHT22;55741;53.252;5.788;2023-03-16T11:02:15;6.50;99.90
54124;DHT22;55741;53.252;5.788;2023-03-16T11:04:41;6.50;99.90
54124;DHT22;55741;53.252;5.788;2023-03-16T11:07:14;6.50;99.90
54124;DHT22;55741;53.252;5.788;2023-03-16T11:09:40;6.60;99.90
54124;DHT22;55741;53.252;5.788;2023-03-16T11:12:23;6.60;99.90
54124;DHT22;55741;53.252;5.788;2023-03-16T11:14:49;6.70;99.90
54124;DHT22;55741;53.252;5.788;2023-03-16T11:17:20;6.70;99.90
54124;DHT22;55741;53.252;5.788;2023-03-16T11:19:59;6.70;99.90
54124;DHT22;55741;53.252;5.788;2023-03-16T11:22:31;6.70;99.90
54124;DHT22;55741;53.252;5.788;2023-03-16T11:30:57;6.90;99.90
54124;DHT22;55741;53.252;5.788;2023-03-16T11:33:30;7.00;99.90
54124;DHT22;55741;53.252;5.788;2023-03-16T11:42:15;7.40;99.90
54124;DHT22;55741;53.252;5.788;2023-03-16T11:51:20;7.70;99.90
54124;DHT22;55741;53.252;5.788;2023-03-16T11:54:05;7.80;99.90
54124;DHT22;55741;53.252;5.788;2023-03-16T11:56:30;7.90;99.90
54124;DHT22;55741;53.252;5.788;2023-03-16T12:04:52;8.20;99.90
54124;DHT22;55741;53.252;5.788;2023-03-16T12:10:36;8.30;99.90
54124;DHT22;55741;53.252;5.788;2023-03-16T12:13:18;8.20;99.90
54124;DHT22;55741;53.252;5.788;2023-03-16T12:16:34;8.30;99.90
54124;DHT22;55741;53.252;5.788;2023-03-16T12:19:05;8.30;99.90
54124;DHT22;55741;53.252;5.788;2023-03-16T12:22:00;8.40;99.90
54124;DHT22;55741;53.252;5.788;2023-03-16T12:24:33;8.50;99.90
54124;DHT22;55741;53.252;5.788;2023-03-16T12:27:00;8.50;99.90
54124;DHT22;55741;53.252;5.788;2023-03-16T12:29:52;8.50;99.90
54124;DHT22;55741;53.252;5.788;2023-03-16T12:33:00;8.60;99.90
54124;DHT22;55741;53.252;5.788;2023-03-16T12:38:23;8.70;99.90
54124;DHT22;55741;53.252;5.788;2023-03-16T12:43:46;8.70;99.90
54124;DHT22;55741;53.252;5.788;2023-03-16T12:49:22;8.70;99.90
54124;DHT22;55741;53.252;5.788;2023-03-16T12:52:00;8.70;99.90
54124;DHT22;55741;53.252;5.788;2023-03-16T12:54:27;8.70;99.90
54124;DHT22;55741;53.252;5.788;2023-03-16T12:57:00;8.60;99.90
54124;DHT22;55741;53.252;5.788;2023-03-16T12:59:39;8.70;99.90
54124;DHT22;55741;53.252;5.788;2023-03-16T13:02:41;8.70;99.90
54124;DHT22;55741;53.252;5.788;2023-03-16T13:05:10;8.70;99.90
54124;DHT22;55741;53.252;5.788;2023-03-16T13:07:48;8.70;99.90
54124;DHT22;55741;53.252;5.788;2023-03-16T13:10:17;8.70;99.90
54124;DHT22;55741;53.252;5.788;2023-03-16T13:12:46;8.70;99.90
54124;DHT22;55741;53.252;5.788;2023-03-16T13:18:19;8.90;99.90
54124;DHT22;55741;53.252;5.788;2023-03-16T13:21:00;8.90;99.90
54124;DHT22;55741;53.252;5.788;2023-03-16T13:23:46;9.00;99.90
54124;DHT22;55741;53.252;5.788;2023-03-16T13:26:42;9.00;99.90
54124;DHT22;55741;53.252;5.788;2023-03-16T13:29:24;9.00;99.90
54124;DHT22;55741;53.252;5.788;2023-03-16T13:31:53;9.10;99.90
54124;DHT22;55741;53.252;5.788;2023-03-16T13:34:25;9.10;99.90
54124;DHT22;55741;53.252;5.788;2023-03-16T13:36:56;9.20;99.90
54124;DHT22;55741;53.252;5.788;2023-03-16T13:39:40;9.20;99.90
54124;DHT22;55741;53.252;5.788;2023-03-16T13:42:18;9.20;99.90
54124;DHT22;55741;53.252;5.788;2023-03-16T13:44:45;9.30;99.90
54124;DHT22;55741;53.252;5.788;2023-03-16T13:47:32;9.30;99.90
54124;DHT22;55741;53.252;5.788;2023-03-16T13:49:58;9.40;99.90
54124;DHT22;55741;53.252;5.788;2023-03-16T13:52:56;9.40;99.90
54124;DHT22;55741;53.252;5.788;2023-03-16T13:55:30;9.40;99.90
54124;DHT22;55741;53.252;5.788;2023-03-16T13:57:57;9.40;99.90
54124;DHT22;55741;53.252;5.788;2023-03-16T14:00:26;9.40;99.90
54124;DHT22;55741;53.252;5.788;2023-03-16T14:02:58;9.40;99.90
54124;DHT22;55741;53.252;5.788;2023-03-16T14:05:31;9.40;99.90
54124;DHT22;55741;53.252;5.788;2023-03-16T14:07:58;9.40;99.90
54124;DHT22;55741;53.252;5.788;2023-03-16T14:10:30;9.50;99.90
54124;DHT22;55741;53.252;5.788;2023-03-16T14:13:05;9.50;99.90
54124;DHT22;55741;53.252;5.788;2023-03-16T14:15:31;9.50;99.90
54124;DHT22;55741;53.252;5.788;2023-03-16T14:18:15;9.50;99.90
54124;DHT22;55741;53.252;5.788;2023-03-16T14:20:46;9.50;99.90
54124;DHT22;55741;53.252;5.788;2023-03-16T14:23:27;9.50;99.90
54124;DHT22;55741;53.252;5.788;2023-03-16T14:25:55;9.50;99.90
54124;DHT22;55741;53.252;5.788;2023-03-16T14:28:27;9.50;99.90
54124;DHT22;55741;53.252;5.788;2023-03-16T14:31:05;9.60;99.90
54124;DHT22;55741;53.252;5.788;2023-03-16T14:33:34;9.60;99.90
54124;DHT22;55741;53.252;5.788;2023-03-16T14:39:13;9.70;99.90
54124;DHT22;55741;53.252;5.788;2023-03-16T14:41:41;9.80;99.90
54124;DHT22;55741;53.252;5.788;2023-03-16T14:44:29;9.70;99.90
54124;DHT22;55741;53.252;5.788;2023-03-16T14:47:00;9.70;99.90
54124;DHT22;55741;53.252;5.788;2023-03-16T14:49:35;9.70;99.90
54124;DHT22;55741;53.252;5.788;2023-03-16T14:52:10;9.70;99.90
54124;DHT22;55741;53.252;5.788;2023-03-16T14:54:40;9.70;99.90
54124;DHT22;55741;53.252;5.788;2023-03-16T14:57:11;9.70;99.90
54124;DHT22;55741;53.252;5.788;2023-03-16T14:59:38;9.70;99.90
54124;DHT22;55741;53.252;5.788;2023-03-16T15:02:08;9.70;99.90
54124;DHT22;55741;53.252;5.788;2023-03-16T15:04:39;9.80;99.90
54124;DHT22;55741;53.252;5.788;2023-03-16T15:07:22;9.80;99.90
54124;DHT22;55741;53.252;5.788;2023-03-16T15:09:51;9.80;99.90
54124;DHT22;55741;53.252;5.788;2023-03-16T15:12:19;9.80;99.90
54124;DHT22;55741;53.252;5.788;2023-03-16T15:14:46;9.90;99.90
54124;DHT22;55741;53.252;5.788;2023-03-16T15:17:32;10.00;99.90
54124;DHT22;55741;53.252;5.788;2023-03-16T15:19:58;9.90;99.90
54124;DHT22;55741;53.252;5.788;2023-03-16T15:22:30;10.00;99.90
54124;DHT22;55741;53.252;5.788;2023-03-16T15:24:57;10.00;99.90
54124;DHT22;55741;53.252;5.788;2023-03-16T15:27:34;9.90;99.90
54124;DHT22;55741;53.252;5.788;2023-03-16T15:30:00;10.00;99.90
54124;DHT22;55741;53.252;5.788;2023-03-16T15:32:26;10.00;99.90
54124;DHT22;55741;53.252;5.788;2023-03-16T15:34:52;10.00;99.90
54124;DHT22;55741;53.252;5.788;2023-03-16T15:37:19;10.00;99.90
54124;DHT22;55741;53.252;5.788;2023-03-16T15:39:46;10.00;99.90
54124;DHT22;55741;53.252;5.788;2023-03-16T15:42:14;10.00;99.90
54124;DHT22;55741;53.252;5.788;2023-03-16T15:44:41;10.10;99.90
54124;DHT22;55741;53.252;5.788;2023-03-16T15:47:07;10.10;99.90
54124;DHT22;55741;53.252;5.788;2023-03-16T15:49:36;10.10;99.90
54124;DHT22;55741;53.252;5.788;2023-03-16T15:52:08;10.10;99.90
54124;DHT22;55741;53.252;5.788;2023-03-16T15:54:41;10.10;99.90
54124;DHT22;55741;53.252;5.788;2023-03-16T15:57:09;10.20;99.90
54124;DHT22;55741;53.252;5.788;2023-03-16T15:59:35;10.20;99.90
54124;DHT22;55741;53.252;5.788;2023-03-16T16:02:02;10.20;99.90
54124;DHT22;55741;53.252;5.788;2023-03-16T16:04:35;10.30;99.90
54124;DHT22;55741;53.252;5.788;2023-03-16T16:07:01;10.30;99.90
54124;DHT22;55741;53.252;5.788;2023-03-16T16:09:27;10.30;99.90
54124;DHT22;55741;53.252;5.788;2023-03-16T16:11:53;10.30;99.90
54124;DHT22;55741;53.252;5.788;2023-03-16T16:14:23;10.40;99.90
54124;DHT22;55741;53.252;5.788;2023-03-16T16:16:49;10.40;99.90
54124;DHT22;55741;53.252;5.788;2023-03-16T16:19:16;10.50;99.90
54124;DHT22;55741;53.252;5.788;2023-03-16T16:21:43;10.50;99.90
54124;DHT22;55741;53.252;5.788;2023-03-16T16:24:10;10.40;99.90
54124;DHT22;55741;53.252;5.788;2023-03-16T16:26:43;10.40;99.90
54124;DHT22;55741;53.252;5.788;2023-03-16T16:29:15;10.40;99.90
54124;DHT22;55741;53.252;5.788;2023-03-16T16:31:42;10.30;99.90
54124;DHT22;55741;53.252;5.788;2023-03-16T16:34:17;10.30;99.90
54124;DHT22;55741;53.252;5.788;2023-03-16T16:36:43;10.20;99.90
54124;DHT22;55741;53.252;5.788;2023-03-16T16:39:09;10.10;99.90
54124;DHT22;55741;53.252;5.788;2023-03-16T16:41:37;10.00;99.90
54124;DHT22;55741;53.252;5.788;2023-03-16T16:44:03;10.00;99.90
54124;DHT22;55741;53.252;5.788;2023-03-16T16:46:36;9.90;99.90
54124;DHT22;55741;53.252;5.788;2023-03-16T16:49:20;9.80;99.90
54124;DHT22;55741;53.252;5.788;2023-03-16T16:51:49;9.80;99.90
54124;DHT22;55741;53.252;5.788;2023-03-16T16:54:21;9.70;99.90
54124;DHT22;55741;53.252;5.788;2023-03-16T16:56:48;9.70;99.90
54124;DHT22;55741;53.252;5.788;2023-03-16T17:01:49;9.60;99.90
54124;DHT22;55741;53.252;5.788;2023-03-16T17:04:18;9.50;99.90
54124;DHT22;55741;53.252;5.788;2023-03-16T17:06:45;9.50;99.90
54124;DHT22;55741;53.252;5.788;2023-03-16T17:09:11;9.50;99.90
54124;DHT22;55741;53.252;5.788;2023-03-16T17:11:40;9.40;99.90
54124;DHT22;55741;53.252;5.788;2023-03-16T17:14:07;9.40;99.90
54124;DHT22;55741;53.252;5.788;2023-03-16T17:16:35;9.40;99.90